BAW18B TXKF-EGLL
Flight info
| Callsign | BAW18B |
|---|---|
| Flight time | N/A |
| Altitude | 39000 |
| Route | M083F390 SOMRR1 BALOO DCT 38N060W 43N055W DCT BOBTU DCT RAFIN NATV ELSOX/N0469F390 DCT EVRIN DCT INFEC DCT JETZI DCT AMFUL DCT ORZEB/N0378F230 P2 SIRIC SIRIC1H |
| Aircraft | B772/H-SDE1E3FGHIJ3J5J6M1M2P2RWXYZ/LB1D1 |
Departure
| Time | 2026-04-24 23:04 |
|---|---|
| Airport | L.F. Wade International Airport (TXKF) |
Arrival
| Time | N/A |
|---|---|
| Airport | London Heathrow Airport (EGLL) |
| Time | Latitude | Longitude | Altitude | Speed | Heading |
|---|---|---|---|---|---|
| 2026-04-24 21:18 | 32.36221 | -64.70284 | 33 ft | 0 kts | 247° |
| 2026-04-24 22:47 | 32.36226 | -64.70267 | 33 ft | 3 kts | 251° |
| 2026-04-24 22:47 | 32.36232 | -64.70245 | 33 ft | 3 kts | 252° |
| 2026-04-24 22:48 | 32.36239 | -64.70223 | 31 ft | 3 kts | 239° |
| 2026-04-24 22:48 | 32.36249 | -64.70208 | 31 ft | 2 kts | 214° |
| 2026-04-24 22:48 | 32.36263 | -64.70198 | 31 ft | 3 kts | 192° |
| 2026-04-24 22:48 | 32.36279 | -64.70197 | 31 ft | 3 kts | 162° |
| 2026-04-24 22:49 | 32.36298 | -64.70205 | 30 ft | 3 kts | 158° |
| 2026-04-24 22:49 | 32.36304 | -64.70208 | 30 ft | 0 kts | 159° |
| 2026-04-24 22:52 | 32.36291 | -64.70201 | 29 ft | 2 kts | 159° |
| 2026-04-24 22:53 | 32.36275 | -64.70191 | 33 ft | 4 kts | 142° |
| 2026-04-24 22:53 | 32.36271 | -64.70154 | 33 ft | 5 kts | 71° |
| 2026-04-24 22:53 | 32.36285 | -64.70112 | 33 ft | 8 kts | 68° |
| 2026-04-24 22:53 | 32.36308 | -64.70044 | 33 ft | 9 kts | 68° |
| 2026-04-24 22:54 | 32.36332 | -64.69975 | 33 ft | 9 kts | 68° |
| 2026-04-24 22:54 | 32.36357 | -64.69904 | 33 ft | 12 kts | 67° |
| 2026-04-24 22:54 | 32.36398 | -64.69791 | 33 ft | 15 kts | 67° |
| 2026-04-24 22:54 | 32.36413 | -64.69748 | 33 ft | 2 kts | 67° |
| 2026-04-24 22:55 | 32.36419 | -64.69732 | 32 ft | 2 kts | 67° |
| 2026-04-24 22:55 | 32.36433 | -64.69690 | 29 ft | 7 kts | 67° |
| 2026-04-24 22:55 | 32.36454 | -64.69630 | 29 ft | 10 kts | 67° |
| 2026-04-24 22:55 | 32.36495 | -64.69517 | 30 ft | 16 kts | 67° |
| 2026-04-24 22:56 | 32.36537 | -64.69398 | 30 ft | 13 kts | 67° |
| 2026-04-24 22:56 | 32.36571 | -64.69302 | 32 ft | 13 kts | 67° |
| 2026-04-24 22:56 | 32.36606 | -64.69204 | 31 ft | 13 kts | 68° |
| 2026-04-24 22:56 | 32.36641 | -64.69105 | 31 ft | 13 kts | 67° |
| 2026-04-24 22:57 | 32.36678 | -64.69003 | 31 ft | 13 kts | 67° |
| 2026-04-24 22:57 | 32.36713 | -64.68902 | 31 ft | 12 kts | 70° |
| 2026-04-24 22:57 | 32.36707 | -64.68801 | 31 ft | 12 kts | 101° |
| 2026-04-24 22:57 | 32.36689 | -64.68697 | 31 ft | 14 kts | 103° |
| 2026-04-24 22:58 | 32.36665 | -64.68566 | 31 ft | 18 kts | 101° |
| 2026-04-24 22:58 | 32.36638 | -64.68411 | 31 ft | 19 kts | 101° |
| 2026-04-24 22:58 | 32.36612 | -64.68255 | 32 ft | 19 kts | 101° |
| 2026-04-24 22:58 | 32.36585 | -64.68099 | 31 ft | 19 kts | 101° |
| 2026-04-24 22:59 | 32.36559 | -64.67943 | 31 ft | 19 kts | 101° |
| 2026-04-24 22:59 | 32.36532 | -64.67787 | 31 ft | 19 kts | 101° |
| 2026-04-24 22:59 | 32.36478 | -64.67475 | 31 ft | 19 kts | 102° |
| 2026-04-24 23:00 | 32.36451 | -64.67319 | 31 ft | 19 kts | 101° |
| 2026-04-24 23:00 | 32.36424 | -64.67163 | 31 ft | 19 kts | 101° |
| 2026-04-24 23:00 | 32.36396 | -64.67007 | 32 ft | 19 kts | 102° |
| 2026-04-24 23:00 | 32.36370 | -64.66855 | 32 ft | 19 kts | 101° |
| 2026-04-24 23:01 | 32.36344 | -64.66702 | 32 ft | 19 kts | 101° |
| 2026-04-24 23:01 | 32.36319 | -64.66555 | 32 ft | 18 kts | 101° |
| 2026-04-24 23:01 | 32.36292 | -64.66445 | 31 ft | 12 kts | 112° |
| 2026-04-24 23:01 | 32.36264 | -64.66363 | 32 ft | 9 kts | 112° |
| 2026-04-24 23:02 | 32.36226 | -64.66330 | 32 ft | 7 kts | 173° |
| 2026-04-24 23:02 | 32.36195 | -64.66332 | 33 ft | 7 kts | 189° |
| 2026-04-24 23:02 | 32.36160 | -64.66342 | 33 ft | 2 kts | 197° |
| 2026-04-24 23:02 | 32.36151 | -64.66360 | 33 ft | 3 kts | 252° |
| 2026-04-24 23:03 | 32.36152 | -64.66383 | 33 ft | 3 kts | 276° |
| 2026-04-24 23:03 | 32.36165 | -64.66469 | 33 ft | 26 kts | 281° |
| 2026-04-24 23:03 | 32.36250 | -64.66973 | 33 ft | 100 kts | 281° |
| 2026-04-24 23:03 | 32.36437 | -64.68042 | 59 ft | 159 kts | 281° |
| 2026-04-24 23:04 | 32.36699 | -64.69282 | 902 ft | 142 kts | 284° |
| 2026-04-24 23:04 | 32.36941 | -64.70405 | 1714 ft | 146 kts | 278° |
| 2026-04-24 23:04 | 32.37130 | -64.71664 | 2136 ft | 164 kts | 277° |
| 2026-04-24 23:04 | 32.37322 | -64.73029 | 2666 ft | 179 kts | 279° |
| 2026-04-24 23:05 | 32.37538 | -64.74525 | 3102 ft | 194 kts | 279° |
| 2026-04-24 23:05 | 32.37783 | -64.76170 | 3500 ft | 210 kts | 279° |
| 2026-04-24 23:05 | 32.38091 | -64.77939 | 3869 ft | 229 kts | 285° |
| 2026-04-24 23:05 | 32.38899 | -64.79593 | 4522 ft | 239 kts | 312° |
| 2026-04-24 23:06 | 32.40366 | -64.80595 | 5228 ft | 254 kts | 342° |
| 2026-04-24 23:06 | 32.42160 | -64.80584 | 5956 ft | 265 kts | 8° |
| 2026-04-24 23:06 | 32.43960 | -64.79968 | 6480 ft | 274 kts | 11° |
| 2026-04-24 23:06 | 32.45813 | -64.79363 | 7075 ft | 278 kts | 8° |
| 2026-04-24 23:07 | 32.47700 | -64.78884 | 7820 ft | 275 kts | 6° |
| 2026-04-24 23:07 | 32.49578 | -64.78454 | 8494 ft | 277 kts | 5° |
| 2026-04-24 23:07 | 32.51487 | -64.78023 | 9105 ft | 280 kts | 6° |
| 2026-04-24 23:07 | 32.53333 | -64.77254 | 9578 ft | 293 kts | 28° |
| 2026-04-24 23:08 | 32.54823 | -64.75554 | 10062 ft | 301 kts | 45° |
| 2026-04-24 23:08 | 32.56202 | -64.73615 | 10295 ft | 318 kts | 45° |
| 2026-04-24 23:08 | 32.57645 | -64.71576 | 10451 ft | 337 kts | 46° |
| 2026-04-24 23:08 | 32.59180 | -64.69403 | 10848 ft | 349 kts | 46° |
| 2026-04-24 23:09 | 32.60757 | -64.67170 | 11469 ft | 356 kts | 46° |
| 2026-04-24 23:09 | 32.62350 | -64.64919 | 12393 ft | 356 kts | 46° |
| 2026-04-24 23:09 | 32.63950 | -64.62664 | 13324 ft | 358 kts | 46° |
| 2026-04-24 23:09 | 32.65571 | -64.60386 | 14065 ft | 365 kts | 46° |
| 2026-04-24 23:10 | 32.67224 | -64.58063 | 14818 ft | 369 kts | 46° |
| 2026-04-24 23:10 | 32.68885 | -64.55730 | 15604 ft | 373 kts | 46° |
| 2026-04-24 23:10 | 32.70572 | -64.53360 | 16315 ft | 378 kts | 46° |
| 2026-04-24 23:10 | 32.72280 | -64.50962 | 17060 ft | 382 kts | 46° |
| 2026-04-24 23:11 | 32.74027 | -64.48550 | 17787 ft | 387 kts | 45° |
| 2026-04-24 23:11 | 32.75805 | -64.46125 | 18423 ft | 392 kts | 45° |
| 2026-04-24 23:11 | 32.77609 | -64.43671 | 19067 ft | 395 kts | 45° |
| 2026-04-24 23:11 | 32.79420 | -64.41203 | 19742 ft | 397 kts | 45° |
| 2026-04-24 23:12 | 32.81243 | -64.38714 | 20356 ft | 401 kts | 44° |
| 2026-04-24 23:12 | 32.83084 | -64.36197 | 20935 ft | 405 kts | 44° |
| 2026-04-24 23:12 | 32.84941 | -64.33653 | 21521 ft | 409 kts | 44° |
| 2026-04-24 23:12 | 32.86813 | -64.31086 | 22120 ft | 413 kts | 44° |
| 2026-04-24 23:13 | 32.88702 | -64.28492 | 22708 ft | 416 kts | 44° |
| 2026-04-24 23:13 | 32.90582 | -64.25909 | 23285 ft | 420 kts | 44° |
| 2026-04-24 23:13 | 32.92505 | -64.23264 | 23804 ft | 423 kts | 44° |
| 2026-04-24 23:13 | 32.94441 | -64.20599 | 24276 ft | 427 kts | 44° |
| 2026-04-24 23:14 | 32.96394 | -64.17910 | 24738 ft | 431 kts | 44° |
| 2026-04-24 23:14 | 32.98358 | -64.15201 | 25206 ft | 434 kts | 44° |
| 2026-04-24 23:14 | 33.00341 | -64.12467 | 25680 ft | 438 kts | 44° |
| 2026-04-24 23:14 | 33.02343 | -64.09706 | 26143 ft | 441 kts | 44° |
| 2026-04-24 23:15 | 33.04360 | -64.06921 | 26599 ft | 445 kts | 44° |
| 2026-04-24 23:15 | 33.06371 | -64.04145 | 27071 ft | 449 kts | 44° |
| 2026-04-24 23:15 | 33.08417 | -64.01318 | 27523 ft | 452 kts | 44° |
| 2026-04-24 23:15 | 33.10486 | -63.98457 | 27973 ft | 456 kts | 44° |
| 2026-04-24 23:16 | 33.12566 | -63.95577 | 28426 ft | 460 kts | 44° |
| 2026-04-24 23:16 | 33.14661 | -63.92673 | 28893 ft | 464 kts | 44° |
| 2026-04-24 23:16 | 33.16772 | -63.89744 | 29338 ft | 467 kts | 44° |
| 2026-04-24 23:16 | 33.18907 | -63.86778 | 29765 ft | 471 kts | 44° |
| 2026-04-24 23:17 | 33.21056 | -63.83793 | 30110 ft | 476 kts | 44° |
| 2026-04-24 23:17 | 33.23221 | -63.80782 | 30467 ft | 479 kts | 44° |
| 2026-04-24 23:17 | 33.25366 | -63.77795 | 30859 ft | 481 kts | 44° |
| 2026-04-24 23:17 | 33.27578 | -63.74711 | 31240 ft | 484 kts | 43° |
| 2026-04-24 23:18 | 33.29774 | -63.71647 | 31598 ft | 487 kts | 43° |
| 2026-04-24 23:18 | 33.31962 | -63.68594 | 31926 ft | 490 kts | 43° |
| 2026-04-24 23:18 | 33.34183 | -63.65491 | 32267 ft | 492 kts | 43° |
| 2026-04-24 23:18 | 33.36418 | -63.62367 | 32592 ft | 495 kts | 43° |
| 2026-04-24 23:19 | 33.38663 | -63.59225 | 32908 ft | 498 kts | 43° |
| 2026-04-24 23:19 | 33.40920 | -63.56065 | 33203 ft | 500 kts | 43° |
| 2026-04-24 23:19 | 33.43185 | -63.52889 | 33485 ft | 503 kts | 43° |
| 2026-04-24 23:19 | 33.45461 | -63.49697 | 33735 ft | 506 kts | 43° |
| 2026-04-24 23:20 | 33.47750 | -63.46483 | 33972 ft | 508 kts | 43° |
| 2026-04-24 23:20 | 33.50049 | -63.43251 | 34205 ft | 510 kts | 43° |
| 2026-04-24 23:20 | 33.52352 | -63.40009 | 34480 ft | 511 kts | 43° |
| 2026-04-24 23:20 | 33.54654 | -63.36766 | 34766 ft | 511 kts | 43° |
| 2026-04-24 23:21 | 33.56959 | -63.33516 | 35039 ft | 512 kts | 43° |
| 2026-04-24 23:21 | 33.59233 | -63.30307 | 35283 ft | 513 kts | 43° |
| 2026-04-24 23:21 | 33.61545 | -63.27043 | 35560 ft | 513 kts | 43° |
| 2026-04-24 23:21 | 33.63860 | -63.23772 | 35815 ft | 514 kts | 43° |
| 2026-04-24 23:22 | 33.66181 | -63.20490 | 36061 ft | 515 kts | 43° |
| 2026-04-24 23:22 | 33.68498 | -63.17209 | 36336 ft | 515 kts | 43° |
| 2026-04-24 23:22 | 33.70815 | -63.13927 | 36590 ft | 516 kts | 44° |
| 2026-04-24 23:22 | 33.73140 | -63.10629 | 36826 ft | 517 kts | 44° |
| 2026-04-24 23:23 | 33.75463 | -63.07331 | 37052 ft | 518 kts | 44° |
| 2026-04-24 23:23 | 33.77793 | -63.04021 | 37324 ft | 518 kts | 44° |
| 2026-04-24 23:23 | 33.80116 | -63.00716 | 37579 ft | 518 kts | 44° |
| 2026-04-24 23:23 | 33.82445 | -62.97401 | 37787 ft | 519 kts | 44° |
| 2026-04-24 23:24 | 33.84779 | -62.94076 | 38014 ft | 520 kts | 44° |
| 2026-04-24 23:24 | 33.87082 | -62.90792 | 38244 ft | 520 kts | 44° |
| 2026-04-24 23:24 | 33.89411 | -62.87467 | 38486 ft | 520 kts | 44° |
| 2026-04-24 23:24 | 33.91740 | -62.84139 | 38664 ft | 520 kts | 44° |
| 2026-04-24 23:25 | 33.94079 | -62.80795 | 38762 ft | 522 kts | 44° |
| 2026-04-24 23:25 | 33.98777 | -62.74069 | 38856 ft | 526 kts | 44° |
| 2026-04-24 23:26 | 34.03478 | -62.67321 | 38841 ft | 523 kts | 44° |
| 2026-04-24 23:26 | 34.08129 | -62.60628 | 38846 ft | 519 kts | 44° |
| 2026-04-24 23:27 | 34.12764 | -62.53953 | 38845 ft | 517 kts | 44° |
| 2026-04-24 23:27 | 34.17381 | -62.47294 | 38847 ft | 517 kts | 44° |
| 2026-04-24 23:28 | 34.21991 | -62.40632 | 38846 ft | 518 kts | 44° |
| 2026-04-24 23:28 | 34.26580 | -62.33985 | 38851 ft | 519 kts | 44° |
| 2026-04-24 23:29 | 34.31220 | -62.27251 | 38837 ft | 522 kts | 44° |
| 2026-04-24 23:29 | 34.35867 | -62.20494 | 38844 ft | 523 kts | 44° |
| 2026-04-24 23:30 | 34.41006 | -62.14412 | 38835 ft | 511 kts | 29° |
| 2026-04-24 23:30 | 34.46955 | -62.09907 | 38831 ft | 497 kts | 17° |
| 2026-04-24 23:31 | 34.53228 | -62.06393 | 38834 ft | 497 kts | 16° |
| 2026-04-24 23:31 | 34.59526 | -62.02905 | 38834 ft | 498 kts | 16° |
| 2026-04-24 23:32 | 34.65816 | -61.99367 | 38823 ft | 499 kts | 16° |
| 2026-04-24 23:32 | 34.72109 | -61.95787 | 38820 ft | 499 kts | 17° |
| 2026-04-24 23:33 | 34.78349 | -61.92220 | 38706 ft | 499 kts | 15° |
| 2026-04-24 23:33 | 34.84655 | -61.88618 | 38813 ft | 504 kts | 15° |
| 2026-04-24 23:34 | 34.91042 | -61.84967 | 38819 ft | 509 kts | 15° |
| 2026-04-24 23:34 | 34.97473 | -61.81280 | 38815 ft | 512 kts | 15° |
| 2026-04-24 23:35 | 35.03897 | -61.77579 | 38795 ft | 505 kts | 15° |
| 2026-04-24 23:35 | 35.10217 | -61.73932 | 38801 ft | 501 kts | 15° |